Time;durP1;ratioP1;P1;durP2;ratioP2;P2;SDS_P1;SDS_P2;PMS_P1;PMS_P2;Temp;Humidity;BMP_temperature;BMP_pressure;BME280_temperature;BME280_humidity;BME280_pressure;Samples;Min_cycle;Max_cycle;Signal;HPM_P1;HPM_P2
2021/01/16 00:00:40;;;;;;;;;;;3.60;60.70;;;;;;4994145;28;20385;-79
2021/01/16 00:03:10;;;;;;;;;;;3.50;60.90;;;;;;4995064;28;20345;-79
2021/01/16 00:05:37;;;;;;;;;;;3.50;61.30;;;;;;5002786;28;19976;-80
2021/01/16 00:08:06;;;;;;;;;;;3.30;61.60;;;;;;5001764;28;19925;-79
2021/01/16 00:10:33;;;;;;;;;;;3.40;62.00;;;;;;4995548;28;19984;-79
2021/01/16 00:12:59;;;;;;;;;;;3.40;61.80;;;;;;4993537;28;19925;-79
2021/01/16 00:15:27;;;;;;;;;;;3.50;61.20;;;;;;4994592;28;20008;-79
2021/01/16 00:18:22;;;;;;;;;;;3.50;60.90;;;;;;4994590;28;20382;-79
2021/01/16 00:20:49;;;;;;;;;;;3.50;60.50;;;;;;4972788;28;19969;-79
2021/01/16 00:23:16;;;;;;;;;;;3.50;60.10;;;;;;4992413;28;19930;-79
2021/01/16 00:25:43;;;;;;;;;;;3.40;60.30;;;;;;4994446;28;19930;-79
2021/01/16 00:28:16;;;;;;;;;;;3.40;60.10;;;;;;4993168;28;19975;-79
2021/01/16 00:30:43;;;;;;;;;;;3.40;60.10;;;;;;4994131;28;20406;-79
2021/01/16 00:33:18;;;;;;;;;;;3.40;60.10;;;;;;4993103;28;20028;-79
2021/01/16 00:35:44;;;;;;;;;;;3.30;60.40;;;;;;4994190;28;19930;-78
2021/01/16 00:38:11;;;;;;;;;;;3.30;60.60;;;;;;4994186;28;19926;-79
2021/01/16 00:40:38;;;;;;;;;;;3.30;60.90;;;;;;4993064;28;20465;-79
2021/01/16 00:43:09;;;;;;;;;;;3.40;60.50;;;;;;4994349;28;20009;-79
2021/01/16 00:45:36;;;;;;;;;;;3.40;59.90;;;;;;4994119;28;19972;-79
2021/01/16 00:48:06;;;;;;;;;;;3.30;60.50;;;;;;4977605;28;19934;-79
2021/01/16 00:50:35;;;;;;;;;;;3.30;60.70;;;;;;4972065;28;19992;-79
2021/01/16 00:53:02;;;;;;;;;;;3.30;61.10;;;;;;4974499;28;19926;-79
2021/01/16 00:55:30;;;;;;;;;;;3.20;61.30;;;;;;4972901;28;19930;-78
2021/01/16 00:57:56;;;;;;;;;;;3.30;61.00;;;;;;4973113;28;19926;-78
2021/01/16 01:00:24;;;;;;;;;;;3.30;60.80;;;;;;4973227;28;19933;-79
2021/01/16 01:02:51;;;;;;;;;;;3.30;61.40;;;;;;4973306;28;20461;-78
2021/01/16 01:05:19;;;;;;;;;;;3.40;61.50;;;;;;4974522;28;20008;-78
2021/01/16 01:07:46;;;;;;;;;;;3.60;60.90;;;;;;4973160;28;20046;-79
2021/01/16 01:10:14;;;;;;;;;;;3.50;59.60;;;;;;4974276;28;20071;-79
2021/01/16 01:12:41;;;;;;;;;;;3.60;58.30;;;;;;4973484;28;19972;-79
2021/01/16 01:15:07;;;;;;;;;;;3.60;57.90;;;;;;4973123;28;20012;-79
2021/01/16 01:17:34;;;;;;;;;;;3.70;57.60;;;;;;4974005;28;19961;-78
2021/01/16 01:20:00;;;;;;;;;;;3.80;57.80;;;;;;4974403;28;20024;-79
2021/01/16 01:22:33;;;;;;;;;;;3.80;58.30;;;;;;4973537;28;20449;-79
2021/01/16 01:24:59;;;;;;;;;;;3.70;59.20;;;;;;4972891;28;19984;-79
2021/01/16 01:27:25;;;;;;;;;;;3.80;59.60;;;;;;4974735;28;20421;-79
2021/01/16 01:29:51;;;;;;;;;;;3.80;59.20;;;;;;4973612;28;19958;-79
2021/01/16 01:32:17;;;;;;;;;;;4.10;59.80;;;;;;4974067;28;20370;-79
2021/01/16 01:34:44;;;;;;;;;;;3.90;60.20;;;;;;4973734;28;19973;-79
2021/01/16 01:37:10;;;;;;;;;;;3.90;61.10;;;;;;4974172;28;20009;-79
2021/01/16 01:39:39;;;;;;;;;;;3.80;61.60;;;;;;4973829;28;20021;-79
2021/01/16 01:42:05;;;;;;;;;;;3.80;62.00;;;;;;4974109;28;20018;-79
2021/01/16 01:44:32;;;;;;;;;;;3.70;62.50;;;;;;4974258;28;19934;-79
2021/01/16 01:46:58;;;;;;;;;;;3.70;62.80;;;;;;4974079;28;19926;-79
2021/01/16 01:49:25;;;;;;;;;;;3.90;63.50;;;;;;4973794;28;20445;-79
2021/01/16 01:51:52;;;;;;;;;;;3.70;63.70;;;;;;4972700;28;19926;-79
2021/01/16 01:54:19;;;;;;;;;;;3.70;63.80;;;;;;4972499;28;19953;-78
2021/01/16 01:56:46;;;;;;;;;;;3.70;63.80;;;;;;4972754;28;19973;-79
2021/01/16 01:59:12;;;;;;;;;;;3.70;64.10;;;;;;4972794;28;20445;-79
2021/01/16 02:01:43;;;;;;;;;;;3.70;64.70;;;;;;4974426;28;19926;-79
2021/01/16 02:04:10;;;;;;;;;;;3.70;63.50;;;;;;4974429;28;20387;-79
2021/01/16 02:06:39;;;;;;;;;;;3.70;62.80;;;;;;4979691;28;19954;-79
2021/01/16 02:09:05;;;;;;;;;;;3.80;62.90;;;;;;4979646;28;19930;-79
2021/01/16 02:11:31;;;;;;;;;;;3.80;62.90;;;;;;4976755;28;19926;-78
2021/01/16 02:13:58;;;;;;;;;;;3.80;62.50;;;;;;4974300;28;19973;-79
2021/01/16 02:16:27;;;;;;;;;;;3.80;62.70;;;;;;4977687;28;20371;-79
2021/01/16 02:18:56;;;;;;;;;;;3.80;62.40;;;;;;4977612;28;19969;-79
2021/01/16 02:21:22;;;;;;;;;;;3.70;62.00;;;;;;4974013;28;19988;-78
2021/01/16 02:23:50;;;;;;;;;;;3.70;61.80;;;;;;4972342;28;19937;-79
2021/01/16 02:26:16;;;;;;;;;;;3.70;61.80;;;;;;4972298;28;19978;-79
2021/01/16 02:28:49;;;;;;;;;;;3.70;62.00;;;;;;4972291;28;19926;-79
2021/01/16 02:31:16;;;;;;;;;;;3.60;62.50;;;;;;4973497;28;19926;-79
2021/01/16 02:33:44;;;;;;;;;;;3.60;62.90;;;;;;4973403;28;19926;-79
2021/01/16 02:36:19;;;;;;;;;;;3.70;62.70;;;;;;4971800;28;19926;-79
2021/01/16 02:38:59;;;;;;;;;;;3.60;62.90;;;;;;4972102;28;20377;-79
2021/01/16 02:41:31;;;;;;;;;;;3.60;62.70;;;;;;4971789;28;19926;-79
2021/01/16 02:44:07;;;;;;;;;;;3.50;62.40;;;;;;4972918;28;20350;-78
2021/01/16 02:46:42;;;;;;;;;;;3.60;62.80;;;;;;4975981;28;19926;-78
2021/01/16 02:49:27;;;;;;;;;;;3.60;63.30;;;;;;4975733;28;19926;-78
2021/01/16 02:52:05;;;;;;;;;;;3.60;63.00;;;;;;4975855;28;20390;-79
2021/01/16 02:54:34;;;;;;;;;;;3.70;62.90;;;;;;4975747;28;19949;-79
2021/01/16 02:57:01;;;;;;;;;;;3.60;63.20;;;;;;4975494;28;19977;-78
2021/01/16 02:59:27;;;;;;;;;;;3.70;63.20;;;;;;4976578;28;19930;-78
2021/01/16 03:01:54;;;;;;;;;;;3.80;63.00;;;;;;4976491;28;20407;-78
2021/01/16 03:04:20;;;;;;;;;;;3.80;62.70;;;;;;4975319;28;19926;-78
2021/01/16 03:06:49;;;;;;;;;;;3.80;62.30;;;;;;4976587;28;19973;-78
2021/01/16 03:09:18;;;;;;;;;;;3.80;61.50;;;;;;4977514;28;19984;-79
2021/01/16 03:11:45;;;;;;;;;;;3.80;61.30;;;;;;4983733;28;19930;-79
2021/01/16 03:14:12;;;;;;;;;;;3.80;60.90;;;;;;4983106;28;20437;-79
2021/01/16 03:16:47;;;;;;;;;;;3.80;60.30;;;;;;4978492;28;19985;-78
2021/01/16 03:19:18;;;;;;;;;;;3.90;60.20;;;;;;4976136;28;20448;-78
2021/01/16 03:21:44;;;;;;;;;;;4.50;60.20;;;;;;4975538;28;19969;-78
2021/01/16 03:24:10;;;;;;;;;;;4.00;60.20;;;;;;4976039;28;20045;-78
2021/01/16 03:26:36;;;;;;;;;;;4.00;61.10;;;;;;4976140;28;20024;-78
2021/01/16 03:29:03;;;;;;;;;;;3.90;59.90;;;;;;4976023;28;19972;-78
2021/01/16 03:31:29;;;;;;;;;;;3.70;60.60;;;;;;4976108;28;20016;-79
2021/01/16 03:33:55;;;;;;;;;;;3.90;59.80;;;;;;4976324;28;19926;-79
2021/01/16 03:36:22;;;;;;;;;;;3.80;59.20;;;;;;4976053;28;20309;-78
2021/01/16 03:38:48;;;;;;;;;;;3.80;59.20;;;;;;4976076;28;20367;-78
2021/01/16 03:41:14;;;;;;;;;;;3.80;59.50;;;;;;4974960;28;19970;-78
2021/01/16 03:43:40;;;;;;;;;;;3.80;59.00;;;;;;4975701;28;19926;-78
2021/01/16 03:46:07;;;;;;;;;;;3.70;57.90;;;;;;4975473;28;20391;-78
2021/01/16 03:48:35;;;;;;;;;;;3.70;58.10;;;;;;4974688;28;19926;-79
2021/01/16 03:51:01;;;;;;;;;;;3.70;59.10;;;;;;4974445;28;19929;-78
2021/01/16 03:53:27;;;;;;;;;;;3.60;59.30;;;;;;4975466;28;19973;-78
2021/01/16 03:55:53;;;;;;;;;;;3.60;59.60;;;;;;4975306;28;20024;-78
2021/01/16 03:58:20;;;;;;;;;;;5.80;60.60;;;;;;4975374;28;19973;-79
2021/01/16 04:00:46;;;;;;;;;;;3.70;59.40;;;;;;4975819;28;19973;-78
2021/01/16 04:03:12;;;;;;;;;;;3.70;59.50;;;;;;4975213;28;19926;-78
2021/01/16 04:05:38;;;;;;;;;;;3.60;59.40;;;;;;4975293;28;20005;-78
2021/01/16 04:08:05;;;;;;;;;;;3.60;59.50;;;;;;4974217;28;19926;-79
2021/01/16 04:10:31;;;;;;;;;;;3.50;59.00;;;;;;4975216;28;20342;-78
2021/01/16 04:13:00;;;;;;;;;;;3.50;59.40;;;;;;4975133;28;19930;-78
2021/01/16 04:15:26;;;;;;;;;;;3.50;58.90;;;;;;4975101;28;20354;-78
2021/01/16 04:17:52;;;;;;;;;;;3.60;58.70;;;;;;4975300;28;19957;-79
2021/01/16 04:20:18;;;;;;;;;;;3.60;58.90;;;;;;4975522;28;19964;-78
2021/01/16 04:22:45;;;;;;;;;;;3.50;59.40;;;;;;4979289;28;19977;-79
2021/01/16 04:25:11;;;;;;;;;;;3.40;59.10;;;;;;4981611;28;20374;-79
2021/01/16 04:27:37;;;;;;;;;;;3.50;59.30;;;;;;4978493;28;19926;-79
2021/01/16 04:30:05;;;;;;;;;;;3.50;59.00;;;;;;4973810;28;20009;-79
2021/01/16 04:32:31;;;;;;;;;;;3.60;59.10;;;;;;4975012;28;20009;-78
2021/01/16 04:34:57;;;;;;;;;;;3.30;60.10;;;;;;4974592;28;20375;-79
2021/01/16 04:37:23;;;;;;;;;;;3.50;60.90;;;;;;4974990;28;19958;-78
2021/01/16 04:39:50;;;;;;;;;;;3.50;60.20;;;;;;4974999;28;20229;-78
2021/01/16 04:42:16;;;;;;;;;;;3.60;60.20;;;;;;4974725;28;19969;-79
2021/01/16 04:44:43;;;;;;;;;;;3.60;60.30;;;;;;4974392;28;19953;-78
2021/01/16 04:47:11;;;;;;;;;;;3.60;60.40;;;;;;4974161;28;20370;-78
2021/01/16 04:49:38;;;;;;;;;;;3.60;60.70;;;;;;4973407;28;20028;-78
2021/01/16 04:52:05;;;;;;;;;;;3.50;61.20;;;;;;4974296;28;20380;-78
2021/01/16 04:54:31;;;;;;;;;;;3.50;60.80;;;;;;4974512;28;20014;-78
2021/01/16 04:56:58;;;;;;;;;;;3.40;58.70;;;;;;4973284;28;19926;-78
2021/01/16 04:59:24;;;;;;;;;;;3.20;58.30;;;;;;4974296;28;19926;-78
2021/01/16 05:01:50;;;;;;;;;;;3.10;58.60;;;;;;4974546;28;19990;-79
2021/01/16 05:04:21;;;;;;;;;;;3.10;58.90;;;;;;4974179;28;19926;-79
2021/01/16 05:06:48;;;;;;;;;;;3.20;60.20;;;;;;4973023;28;20279;-78
2021/01/16 05:09:15;;;;;;;;;;;3.10;58.60;;;;;;4972521;28;19973;-79
2021/01/16 05:11:43;;;;;;;;;;;3.10;60.20;;;;;;4974166;28;20390;-78
2021/01/16 05:14:16;;;;;;;;;;;3.20;59.80;;;;;;4974053;28;20470;-78
2021/01/16 05:16:57;;;;;;;;;;;3.30;59.40;;;;;;4972828;28;19930;-78
2021/01/16 05:19:29;;;;;;;;;;;4.20;59.90;;;;;;4975917;28;19926;-78
2021/01/16 05:21:56;;;;;;;;;;;3.30;59.70;;;;;;4975553;28;19933;-78
2021/01/16 05:24:22;;;;;;;;;;;1.80;57.60;;;;;;4974680;28;19926;-77
2021/01/16 05:26:55;;;;;;;;;;;3.30;58.50;;;;;;4973795;28;19926;-78
2021/01/16 05:29:22;;;;;;;;;;;3.10;57.80;;;;;;4972877;28;20448;-77
2021/01/16 05:31:50;;;;;;;;;;;3.20;59.40;;;;;;4973865;28;20359;-77
2021/01/16 05:34:16;;;;;;;;;;;3.30;60.80;;;;;;4974003;28;20001;-77
2021/01/16 05:36:46;;;;;;;;;;;3.10;56.00;;;;;;4972706;28;20355;-78
2021/01/16 05:39:13;;;;;;;;;;;2.80;55.80;;;;;;4974203;28;19926;-78
2021/01/16 05:41:40;;;;;;;;;;;2.90;56.40;;;;;;4974030;28;20013;-78
2021/01/16 05:44:06;;;;;;;;;;;2.90;56.40;;;;;;4973849;28;19978;-78
2021/01/16 05:46:32;;;;;;;;;;;2.90;55.90;;;;;;4974228;28;19984;-78
2021/01/16 05:49:00;;;;;;;;;;;2.90;55.80;;;;;;4973963;28;19926;-78
2021/01/16 05:51:27;;;;;;;;;;;2.80;56.10;;;;;;4973877;28;19930;-79
2021/01/16 05:53:54;;;;;;;;;;;2.80;56.60;;;;;;4974369;28;19943;-78
2021/01/16 05:56:20;;;;;;;;;;;4.40;57.80;;;;;;4974126;28;20020;-78
2021/01/16 05:58:47;;;;;;;;;;;2.70;56.50;;;;;;4974130;28;19934;-78
2021/01/16 06:01:23;;;;;;;;;;;2.70;56.20;;;;;;4973942;28;20406;-78
2021/01/16 06:03:51;;;;;;;;;;;2.60;56.60;;;;;;4972991;28;19926;-78
2021/01/16 06:06:17;;;;;;;;;;;3.80;57.50;;;;;;4973746;28;19925;-78
2021/01/16 06:08:50;;;;;;;;;;;2.60;56.70;;;;;;4972374;28;19953;-78
2021/01/16 06:11:21;;;;;;;;;;;2.60;57.10;;;;;;4973808;28;19926;-78
2021/01/16 06:13:49;;;;;;;;;;;2.60;57.00;;;;;;4972614;28;19981;-78
2021/01/16 06:16:20;;;;;;;;;;;2.70;56.80;;;;;;4973802;28;19997;-78
2021/01/16 06:18:46;;;;;;;;;;;2.70;57.00;;;;;;4974117;28;19930;-78
2021/01/16 06:21:19;;;;;;;;;;;2.70;56.90;;;;;;4976836;28;20015;-78
2021/01/16 06:23:51;;;;;;;;;;;2.70;56.40;;;;;;4977723;28;19992;-78
2021/01/16 06:26:18;;;;;;;;;;;2.80;56.60;;;;;;4979943;28;20830;-78
2021/01/16 06:28:53;;;;;;;;;;;2.90;56.40;;;;;;4984387;28;19961;-78
2021/01/16 06:31:27;;;;;;;;;;;2.90;56.10;;;;;;4984904;28;20040;-78
2021/01/16 06:33:55;;;;;;;;;;;2.80;56.40;;;;;;4985755;28;20361;-78
2021/01/16 06:36:25;;;;;;;;;;;2.80;56.10;;;;;;4977604;28;20438;-77
2021/01/16 06:38:57;;;;;;;;;;;2.50;57.20;;;;;;4977246;28;19926;-77
2021/01/16 06:41:27;;;;;;;;;;;2.70;57.60;;;;;;4977564;28;19927;-77
2021/01/16 06:43:54;;;;;;;;;;;2.60;56.80;;;;;;4977837;28;19989;-77
2021/01/16 06:46:37;;;;;;;;;;;2.80;56.50;;;;;;4975879;28;19932;-77
2021/01/16 06:49:05;;;;;;;;;;;2.60;57.40;;;;;;4976003;28;19988;-77
2021/01/16 06:51:31;;;;;;;;;;;2.60;57.50;;;;;;4981114;28;19953;-80
2021/01/16 06:54:04;;;;;;;;;;;2.80;57.30;;;;;;4980487;28;19981;-78
2021/01/16 06:56:33;;;;;;;;;;;2.80;57.00;;;;;;4978549;28;19973;-77
2021/01/16 06:59:00;;;;;;;;;;;2.80;56.90;;;;;;4978068;28;19926;-77
2021/01/16 07:01:30;;;;;;;;;;;2.70;57.50;;;;;;4976434;28;19926;-77
2021/01/16 07:04:00;;;;;;;;;;;2.80;57.50;;;;;;4977949;28;20051;-77
2021/01/16 07:06:26;;;;;;;;;;;2.70;57.50;;;;;;4981938;28;19969;-76
2021/01/16 07:08:53;;;;;;;;;;;3.60;57.90;;;;;;4983664;28;20005;-78
2021/01/16 07:11:19;;;;;;;;;;;2.70;57.40;;;;;;4982953;28;19977;-78
2021/01/16 07:13:46;;;;;;;;;;;2.80;57.90;;;;;;4976626;28;20012;-77
2021/01/16 07:16:12;;;;;;;;;;;2.80;57.60;;;;;;4975390;28;20016;-77
2021/01/16 07:18:42;;;;;;;;;;;2.90;58.10;;;;;;4976689;28;19926;-77
2021/01/16 07:21:09;;;;;;;;;;;2.80;57.10;;;;;;4976214;28;20378;-77
2021/01/16 07:23:35;;;;;;;;;;;2.80;57.00;;;;;;4976340;28;19926;-78
2021/01/16 07:26:03;;;;;;;;;;;2.80;57.70;;;;;;4975069;28;20022;-77
2021/01/16 07:28:33;;;;;;;;;;;2.80;57.80;;;;;;4976616;28;19980;-78
2021/01/16 07:31:01;;;;;;;;;;;2.80;57.40;;;;;;4982814;28;19937;-78
2021/01/16 07:33:28;;;;;;;;;;;2.80;57.60;;;;;;4984084;28;20025;-79
2021/01/16 07:35:57;;;;;;;;;;;2.90;57.40;;;;;;4981588;28;19956;-80
2021/01/16 07:38:25;;;;;;;;;;;3.10;57.10;;;;;;4980707;28;20318;-80
2021/01/16 07:40:55;;;;;;;;;;;3.00;56.90;;;;;;4978905;28;20483;-81
2021/01/16 07:43:36;;;;;;;;;;;2.80;57.60;;;;;;4978159;28;19930;-79
2021/01/16 07:46:09;;;;;;;;;;;2.70;58.20;;;;;;4976435;28;19974;-79
2021/01/16 07:48:45;;;;;;;;;;;2.60;59.60;;;;;;4977787;28;20016;-80
2021/01/16 07:51:11;;;;;;;;;;;2.60;59.40;;;;;;4979664;28;19984;-81
2021/01/16 07:53:41;;;;;;;;;;;2.50;59.30;;;;;;4976503;28;20424;-79
2021/01/16 07:56:16;;;;;;;;;;;2.60;59.70;;;;;;4974657;28;20310;-79
2021/01/16 07:58:49;;;;;;;;;;;2.70;59.70;;;;;;4974674;28;19926;-80
2021/01/16 08:01:16;;;;;;;;;;;2.60;60.00;;;;;;4979208;28;19926;-82
2021/01/16 08:03:55;;;;;;;;;;;2.70;60.40;;;;;;4994766;28;19953;-81
2021/01/16 08:06:35;;;;;;;;;;;2.80;60.00;;;;;;4998648;28;19980;-80
2021/01/16 08:09:05;;;;;;;;;;;2.50;60.60;;;;;;4989112;28;19932;-79
2021/01/16 08:11:32;;;;;;;;;;;2.60;60.60;;;;;;4994754;28;19932;-79
2021/01/16 08:14:00;;;;;;;;;;;2.60;61.50;;;;;;4995303;28;19973;-79
2021/01/16 08:16:27;;;;;;;;;;;2.80;60.70;;;;;;4997519;28;19983;-80
2021/01/16 08:19:24;;;;;;;;;;;3.70;61.00;;;;;;4998745;28;19949;-80
